createdAt,value
2022-08-05T00:04:56.586Z,5.60
2022-08-05T00:09:58.068Z,6.50
2022-08-05T00:15:00.127Z,7.05
2022-08-05T00:20:21.526Z,4.88
2022-08-05T00:25:23.062Z,5.85
2022-08-05T00:30:29.312Z,6.00
2022-08-05T00:35:33.841Z,7.20
2022-08-05T00:40:53.338Z,6.50
2022-08-05T00:45:55.258Z,5.75
2022-08-05T00:50:56.724Z,6.18
2022-08-05T00:55:58.143Z,7.82
2022-08-05T01:00:59.697Z,5.45
2022-08-05T01:06:02.605Z,5.13
2022-08-05T01:11:22.567Z,6.85
2022-08-05T01:16:54.074Z,6.15
2022-08-05T01:22:18.677Z,6.70
2022-08-05T01:27:50.863Z,7.13
2022-08-05T01:32:59.574Z,5.72
2022-08-05T01:38:04.326Z,5.80
2022-08-05T01:43:07.180Z,7.15
2022-08-05T01:48:26.484Z,7.90
2022-08-05T01:53:57.483Z,6.50
2022-08-05T01:58:52.515Z,8.32
2022-08-05T02:03:56.838Z,5.85
2022-08-05T02:08:59.441Z,8.35
2022-08-05T02:14:12.421Z,7.30
2022-08-05T02:19:33.506Z,12.65
2022-08-05T02:24:39.017Z,8.93
2022-08-05T02:29:58.451Z,11.25
2022-08-05T02:35:14.240Z,6.95
2022-08-05T02:40:17.330Z,8.25
2022-08-05T02:45:20.272Z,5.82
2022-08-05T02:50:27.571Z,9.00
2022-08-05T02:55:54.046Z,10.57
2022-08-05T03:00:58.839Z,8.65
2022-08-05T03:06:56.097Z,7.55
2022-08-05T03:11:56.126Z,12.57
2022-08-05T03:16:46.764Z,10.20
2022-08-05T03:21:50.066Z,11.50
2022-08-05T03:26:51.743Z,9.27
2022-08-05T03:31:57.150Z,8.85
2022-08-05T03:37:02.884Z,10.05
2022-08-05T03:42:04.610Z,10.27
2022-08-05T03:47:06.043Z,10.00
2022-08-05T03:52:37.117Z,13.35
2022-08-05T03:57:41.620Z,11.45
2022-08-05T04:02:57.685Z,11.20
2022-08-05T04:08:03.458Z,12.88
2022-08-05T04:13:07.896Z,12.57
2022-08-05T04:18:12.742Z,10.90
2022-08-05T04:24:04.979Z,12.65
2022-08-05T04:28:51.841Z,9.80
2022-08-05T04:34:17.165Z,15.30
2022-08-05T04:39:15.169Z,12.23
2022-08-05T04:44:29.002Z,12.38
2022-08-05T04:49:38.849Z,13.95
2022-08-05T04:54:52.708Z,14.38
2022-08-05T04:59:54.138Z,11.05
2022-08-05T05:05:02.264Z,14.93
2022-08-05T05:10:06.515Z,12.93
2022-08-05T05:15:10.794Z,11.27
2022-08-05T05:20:13.759Z,11.32
2022-08-05T05:25:16.682Z,13.57
2022-08-05T05:30:29.508Z,14.32
2022-08-05T05:35:37.807Z,14.82
2022-08-05T05:40:43.852Z,12.63
2022-08-05T05:45:51.607Z,13.45
2022-08-05T05:50:53.013Z,12.40
2022-08-05T05:56:01.398Z,10.35
2022-08-05T06:01:12.912Z,11.47
2022-08-05T06:06:14.660Z,10.68
2022-08-05T06:11:16.047Z,9.27
2022-08-05T06:16:29.109Z,11.40
2022-08-05T06:21:37.210Z,10.05
2022-08-05T06:26:51.770Z,12.07
2022-08-05T06:31:53.920Z,9.27
2022-08-05T06:36:57.974Z,11.38
2022-08-05T06:42:04.842Z,9.18
2022-08-05T06:47:06.284Z,8.27
2022-08-05T06:52:36.417Z,8.80
2022-08-05T06:58:02.981Z,12.07
2022-08-05T07:02:54.726Z,9.60
2022-08-05T07:07:56.165Z,7.25
2022-08-05T07:13:16.161Z,7.32
2022-08-05T07:18:37.609Z,8.05
2022-08-05T07:23:50.018Z,9.48
2022-08-05T07:28:53.768Z,7.97
2022-08-05T07:33:55.238Z,6.88
2022-08-05T07:39:05.651Z,11.20
2022-08-05T07:44:14.014Z,10.48
2022-08-05T07:49:16.103Z,7.57
2022-08-05T07:54:21.944Z,8.77
2022-08-05T07:59:39.017Z,7.50
2022-08-05T08:04:42.087Z,7.70
2022-08-05T08:09:46.937Z,6.88
2022-08-05T08:14:49.870Z,6.35
2022-08-05T08:20:43.557Z,6.22
2022-08-05T08:25:15.901Z,8.18
2022-08-05T08:30:32.416Z,8.13
2022-08-05T08:35:40.984Z,6.68
2022-08-05T08:40:50.507Z,7.80
2022-08-05T08:45:54.361Z,7.75
2022-08-05T08:51:21.954Z,9.68
2022-08-05T08:56:18.117Z,7.35
2022-08-05T09:01:20.288Z,9.82
2022-08-05T09:06:24.223Z,8.25
2022-08-05T09:11:51.071Z,8.23
2022-08-05T09:16:55.389Z,7.38
2022-08-05T09:22:21.889Z,10.82
2022-08-05T09:28:04.051Z,7.18
2022-08-05T09:33:02.494Z,8.05
2022-08-05T09:38:12.672Z,9.45
2022-08-05T09:43:40.487Z,6.25
2022-08-05T09:48:43.425Z,7.60
2022-08-05T09:54:08.452Z,5.57
2022-08-05T09:59:17.252Z,7.47
2022-08-05T10:04:18.839Z,5.72
2022-08-05T10:09:30.733Z,6.40
2022-08-05T10:14:46.931Z,7.38
2022-08-05T10:20:03.972Z,5.63
2022-08-05T10:25:10.701Z,4.75
2022-08-05T10:32:47.905Z,3.90
2022-08-05T10:35:40.590Z,4.85
2022-08-05T10:40:58.026Z,5.00
2022-08-05T10:46:06.549Z,4.40
2022-08-05T10:51:22.037Z,6.80
2022-08-05T10:56:30.059Z,8.10
2022-08-05T11:01:55.319Z,4.53
2022-08-05T11:07:04.467Z,4.90
2022-08-05T11:12:26.628Z,4.55
2022-08-05T11:18:09.525Z,5.35
2022-08-05T11:22:54.071Z,6.50
2022-08-05T11:28:17.113Z,6.30
2022-08-05T11:33:26.226Z,7.00
2022-08-05T11:38:51.251Z,7.50
2022-08-05T11:44:07.335Z,6.03
2022-08-05T11:49:13.482Z,7.13
2022-08-05T11:54:32.800Z,7.93
2022-08-05T11:59:49.840Z,5.53
2022-08-05T12:04:59.056Z,5.53
2022-08-05T12:10:09.615Z,6.35
2022-08-05T12:15:35.895Z,5.75
2022-08-05T12:20:41.351Z,4.78
2022-08-05T12:25:53.604Z,6.25
2022-08-05T12:31:02.381Z,5.55
2022-08-05T12:36:07.173Z,6.18
2022-08-05T12:41:13.414Z,5.88
2022-08-05T12:46:29.067Z,5.55
2022-08-05T12:52:14.355Z,6.22
2022-08-05T12:57:03.712Z,4.82
2022-08-05T13:02:08.180Z,4.50
2022-08-05T13:07:16.030Z,2.92
2022-08-05T13:12:20.722Z,3.70
2022-08-05T13:17:41.246Z,3.13
2022-08-05T13:22:48.735Z,4.35
2022-08-05T13:27:52.979Z,4.10
2022-08-05T13:32:54.451Z,3.30
2022-08-05T13:37:57.970Z,3.60
2022-08-05T13:43:12.067Z,2.92
2022-08-05T13:48:57.601Z,1.52
2022-08-05T13:53:35.522Z,2.88
2022-08-05T13:58:51.328Z,1.42
2022-08-05T14:04:13.607Z,2.40
2022-08-05T14:09:16.098Z,1.38
2022-08-05T14:14:23.707Z,2.80
2022-08-05T14:19:27.557Z,3.17
2022-08-05T14:24:30.547Z,1.30
2022-08-05T14:29:32.776Z,1.65
2022-08-05T14:34:35.885Z,1.02
2022-08-05T14:39:49.258Z,2.70
2022-08-05T14:44:52.051Z,1.35
2022-08-05T14:49:56.253Z,1.95
2022-08-05T14:55:01.313Z,2.03
2022-08-05T15:00:03.037Z,3.47
2022-08-05T15:05:08.538Z,2.00
2022-08-05T15:10:14.877Z,1.40
2022-08-05T15:15:16.847Z,5.25
2022-08-05T15:20:38.825Z,0.65
2022-08-05T15:25:41.226Z,2.15
2022-08-05T15:30:54.910Z,1.08
2022-08-05T15:35:56.305Z,1.63
2022-08-05T15:41:20.730Z,0.55
2022-08-05T15:46:21.031Z,0.85
2022-08-05T15:52:13.398Z,1.67
2022-08-05T15:56:48.847Z,0.65
2022-08-05T16:01:52.885Z,1.98
2022-08-05T16:06:55.796Z,0.60
2022-08-05T16:11:57.743Z,1.83
2022-08-05T16:16:59.337Z,1.40
2022-08-05T16:22:03.468Z,1.17
2022-08-05T16:27:07.330Z,0.77
2022-08-05T16:32:09.733Z,2.15
2022-08-05T16:38:02.565Z,1.65
2022-08-05T16:42:33.181Z,1.08
2022-08-05T16:47:36.296Z,1.27
2022-08-05T16:52:49.995Z,2.05
2022-08-05T16:57:53.160Z,0.85
2022-08-05T17:03:02.909Z,6.10
2022-08-05T17:08:05.270Z,1.13
2022-08-05T17:13:16.913Z,1.50
2022-08-05T17:18:22.598Z,1.08
2022-08-05T17:24:03.562Z,1.55
2022-08-05T17:28:47.152Z,1.00
2022-08-05T17:33:51.425Z,2.05
2022-08-05T17:38:52.970Z,0.63
2022-08-05T17:43:54.482Z,1.17
2022-08-05T17:48:55.975Z,2.47
2022-08-05T17:53:59.732Z,1.15
2022-08-05T17:59:01.588Z,1.05
2022-08-05T18:04:05.917Z,1.92
2022-08-05T18:09:14.630Z,1.98
2022-08-05T18:14:20.595Z,1.75
2022-08-05T18:19:25.943Z,0.90
2022-08-05T18:24:27.654Z,1.52
2022-08-05T18:29:40.349Z,1.42
2022-08-05T18:34:42.862Z,1.10
2022-08-05T18:40:57.610Z,1.35
2022-08-05T18:45:06.369Z,1.48
2022-08-05T18:50:45.136Z,2.95
2022-08-05T18:55:48.566Z,0.73
2022-08-05T19:00:50.152Z,1.23
2022-08-05T19:06:12.384Z,2.60
2022-08-05T19:11:13.233Z,1.85
2022-08-05T19:16:25.272Z,2.05
2022-08-05T19:21:34.751Z,1.58
2022-08-05T19:26:54.174Z,0.88
2022-08-05T19:31:57.389Z,2.90
2022-08-05T19:36:58.983Z,2.78
2022-08-05T19:42:07.363Z,2.45
2022-08-05T19:47:10.635Z,1.70
2022-08-05T19:52:29.306Z,1.92
2022-08-05T19:57:46.512Z,1.10
2022-08-05T20:02:54.969Z,3.20
2022-08-05T20:07:58.917Z,1.98
2022-08-05T20:13:00.632Z,1.33
2022-08-05T20:18:02.138Z,2.03
2022-08-05T20:23:04.797Z,2.60
2022-08-05T20:28:07.683Z,2.63
2022-08-05T20:33:14.997Z,1.70
2022-08-05T20:38:22.879Z,3.42
2022-08-05T20:43:32.307Z,1.85
2022-08-05T20:48:51.259Z,3.45
2022-08-05T20:53:56.761Z,2.10
2022-08-05T20:58:59.944Z,5.47
2022-08-05T21:04:12.620Z,2.63
2022-08-05T21:09:15.745Z,4.82
2022-08-05T21:14:17.196Z,2.13
2022-08-05T21:19:20.434Z,2.45
2022-08-05T21:24:24.935Z,4.40
2022-08-05T21:29:31.513Z,2.40
2022-08-05T21:34:35.545Z,3.05
2022-08-05T21:39:40.481Z,1.90
2022-08-05T21:44:42.313Z,2.20
2022-08-05T21:49:58.584Z,2.30
2022-08-05T21:55:06.947Z,3.03
2022-08-05T22:00:11.725Z,3.88
2022-08-05T22:05:13.380Z,2.40
2022-08-05T22:10:18.235Z,2.38
2022-08-05T22:16:01.875Z,8.68
2022-08-05T22:20:51.614Z,2.17
2022-08-05T22:26:12.318Z,3.30
2022-08-05T22:31:16.616Z,2.53
2022-08-05T22:36:18.081Z,2.60
2022-08-05T22:41:26.339Z,3.30
2022-08-05T22:46:42.726Z,2.33
2022-08-05T22:52:04.498Z,3.70
2022-08-05T22:57:09.177Z,2.05
2022-08-05T23:02:10.803Z,3.05
2022-08-05T23:07:12.243Z,6.45
2022-08-05T23:12:16.200Z,4.13
2022-08-05T23:17:24.621Z,4.45
2022-08-05T23:22:36.523Z,2.92
2022-08-05T23:27:42.465Z,2.67
2022-08-05T23:38:01.563Z,2.50
2022-08-05T23:43:02.981Z,5.18
2022-08-05T23:48:26.357Z,3.90
2022-08-05T23:53:28.565Z,4.03
2022-08-05T23:58:48.471Z,2.97
